Time;durP1;ratioP1;P1;durP2;ratioP2;P2;SDS_P1;SDS_P2;PMS_P1;PMS_P2;Temp;Humidity;BMP_temperature;BMP_pressure;BME280_temperature;BME280_humidity;BME280_pressure;Samples;Min_cycle;Max_cycle;Signal;HPM_P1;HPM_P2
2023/05/24 00:45:28;;;;;;;23.20;16.90;;;;;;;19.35;72.08;98622.34;222364;190;665538;-65
2023/05/24 00:50:37;;;;;;;20.70;17.40;;;;;;;19.27;72.21;98620.30;223344;187;136372;-65
2023/05/24 00:55:40;;;;;;;23.30;18.10;;;;;;;19.19;72.31;98622.08;223665;183;143562;-64
2023/05/24 01:00:48;;;;;;;17.60;15.00;;;;;;;19.10;72.50;98620.25;223612;183;138320;-64
2023/05/24 01:05:51;;;;;;;21.40;16.40;;;;;;;19.03;72.68;98626.63;223585;182;137009;-65
2023/05/24 01:11:03;;;;;;;23.20;17.10;;;;;;;19.01;72.93;98629.36;223801;182;144052;-66
2023/05/24 01:16:09;;;;;;;21.80;17.00;;;;;;;19.00;72.96;98628.71;223737;183;138295;-68
2023/05/24 01:21:47;;;;;;;22.30;18.20;;;;;;;18.95;72.92;98625.45;223844;182;137009;-64
2023/05/24 01:27:12;;;;;;;17.50;14.90;;;;;;;18.89;73.21;98627.52;223750;182;143427;-66
2023/05/24 01:32:17;;;;;;;28.20;15.20;;;;;;;18.87;73.31;98638.83;223767;182;138100;-65
2023/05/24 01:37:21;;;;;;;19.90;16.60;;;;;;;18.91;73.40;98640.62;223770;181;136915;-65
2023/05/24 01:43:13;;;;;;;22.00;17.70;;;;;;;18.91;73.20;98642.58;223742;182;145037;-65
2023/05/24 01:48:27;;;;;;;21.70;18.30;;;;;;;18.88;73.18;98647.56;223522;181;138443;-65
2023/05/24 01:53:38;;;;;;;22.80;19.00;;;;;;;18.82;73.23;98646.36;223797;182;136703;-65
2023/05/24 01:58:44;;;;;;;20.60;18.10;;;;;;;18.74;73.46;98645.41;223848;182;145523;-66
2023/05/24 02:03:49;;;;;;;21.30;17.40;;;;;;;18.75;73.68;98649.13;222105;183;139258;-66
2023/05/24 02:08:53;;;;;;;25.00;19.20;;;;;;;18.78;73.69;98640.52;223733;182;137676;-68
2023/05/24 02:13:56;;;;;;;26.10;20.10;;;;;;;18.81;73.63;98642.05;223806;182;145325;-66
2023/05/24 02:18:59;;;;;;;24.80;19.50;;;;;;;18.81;73.21;98644.33;223800;181;138952;-67
2023/05/24 02:24:03;;;;;;;24.10;19.60;;;;;;;18.76;73.31;98645.73;223761;181;138692;-64
2023/05/24 02:29:06;;;;;;;21.00;18.10;;;;;;;18.70;73.47;98646.93;223784;182;145314;-65
2023/05/24 02:34:14;;;;;;;27.70;17.60;;;;;;;18.64;73.72;98646.95;223733;182;138928;-67
2023/05/24 02:39:17;;;;;;;22.80;18.20;;;;;;;18.64;73.71;98645.88;223753;181;137777;-65
2023/05/24 02:44:20;;;;;;;26.40;19.40;;;;;;;18.65;73.81;98643.36;223706;182;145842;-66
2023/05/24 02:49:23;;;;;;;24.50;19.70;;;;;;;18.65;73.91;98647.94;223694;182;138440;-64
2023/05/24 02:54:26;;;;;;;27.20;19.50;;;;;;;18.63;73.96;98650.25;223699;182;136420;-65
2023/05/24 02:59:31;;;;;;;26.30;18.50;;;;;;;18.56;74.07;98654.37;223762;182;145169;-64
2023/05/24 03:04:34;;;;;;;21.30;18.80;;;;;;;18.52;74.24;98651.01;223659;181;138250;-65
2023/05/24 03:09:38;;;;;;;23.70;19.70;;;;;;;18.55;74.42;98652.37;223661;182;137420;-65
2023/05/24 03:14:41;;;;;;;25.60;20.90;;;;;;;18.59;74.41;98653.05;223777;182;144985;-66
2023/05/24 03:19:44;;;;;;;27.80;21.80;;;;;;;18.62;74.34;98655.03;223685;182;138624;-64
2023/05/24 03:24:48;;;;;;;32.30;22.20;;;;;;;18.64;74.26;98653.74;223723;181;137240;-66
2023/05/24 03:29:51;;;;;;;29.00;20.20;;;;;;;18.61;74.22;98657.45;223697;182;147970;-63
2023/05/24 03:34:58;;;;;;;23.30;20.20;;;;;;;18.64;74.42;98662.02;223779;181;138181;-63
2023/05/24 03:40:05;;;;;;;24.80;20.30;;;;;;;18.71;74.21;98662.43;223684;181;137972;-66
2023/05/24 03:45:30;;;;;;;24.60;20.20;;;;;;;18.77;73.87;98671.89;223760;182;145368;-67
2023/05/24 03:50:42;;;;;;;25.00;20.90;;;;;;;18.80;73.66;98674.88;223726;182;140237;-65
2023/05/24 03:55:46;;;;;;;25.30;20.90;;;;;;;18.78;73.35;98677.70;223663;181;137550;-64
2023/05/24 04:00:49;;;;;;;24.50;19.00;;;;;;;18.78;73.13;98678.46;223701;182;145356;-64
2023/05/24 04:05:53;;;;;;;29.50;20.50;;;;;;;18.78;73.04;98689.98;223628;182;139448;-65
2023/05/24 04:10:57;;;;;;;28.70;20.30;;;;;;;18.81;72.94;98700.61;223746;182;138405;-66
2023/05/24 04:16:00;;;;;;;23.10;19.30;;;;;;;18.82;72.73;98704.66;223778;182;145432;-64
2023/05/24 04:21:03;;;;;;;25.50;19.50;;;;;;;18.78;72.11;98710.22;223643;182;138294;-63
2023/05/24 04:26:09;;;;;;;26.20;19.30;;;;;;;18.74;71.85;98714.60;223634;182;136655;-65
2023/05/24 04:31:14;;;;;;;;;;;;;;;18.66;71.63;98728.45;223716;182;145329;-65
2023/05/24 04:36:18;;;;;;;21.10;16.90;;;;;;;18.60;71.49;98735.39;223654;181;138553;-64
2023/05/24 04:41:21;;;;;;;22.40;18.30;;;;;;;18.58;71.65;98741.30;223830;182;139356;-65
2023/05/24 04:46:26;;;;;;;25.50;19.30;;;;;;;18.60;71.31;98743.67;223772;182;145217;-63
2023/05/24 04:51:29;;;;;;;26.10;18.90;;;;;;;18.57;71.19;98750.45;223736;182;138492;-65
2023/05/24 04:56:32;;;;;;;24.60;19.70;;;;;;;18.50;71.05;98755.67;223770;182;136974;-64
2023/05/24 05:01:35;;;;;;;24.30;18.10;;;;;;;18.44;70.86;98763.42;223728;182;145142;-64
2023/05/24 05:06:39;;;;;;;21.10;18.00;;;;;;;18.38;71.03;98769.22;223673;181;140346;-65
2023/05/24 05:11:42;;;;;;;25.00;19.10;;;;;;;18.39;71.16;98774.45;223749;182;137236;-65
2023/05/24 05:16:45;;;;;;;24.60;19.60;;;;;;;18.37;71.22;98781.33;223695;178;145243;-65
2023/05/24 05:21:54;;;;;;;24.40;19.40;;;;;;;18.34;71.25;98790.66;223624;181;138482;-67
2023/05/24 05:26:58;;;;;;;24.70;20.50;;;;;;;18.29;71.35;98800.63;223743;182;136985;-66
2023/05/24 05:32:01;;;;;;;24.30;17.60;;;;;;;18.23;71.61;98804.33;223539;181;145828;-67
2023/05/24 05:37:04;;;;;;;20.10;17.20;;;;;;;18.18;71.67;98806.16;223629;181;141502;-64
2023/05/24 05:42:07;;;;;;;24.80;20.30;;;;;;;18.20;71.71;98810.11;223691;182;138623;-68
2023/05/24 05:47:11;;;;;;;60.20;50.40;;;;;;;18.28;71.96;98815.66;223778;182;145157;-66
2023/05/24 05:52:14;;;;;;;22.20;17.30;;;;;;;18.38;71.66;98821.30;223530;182;138791;-66
2023/05/24 05:57:22;;;;;;;36.50;29.30;;;;;;;18.39;71.60;98826.39;223727;182;137448;-66
2023/05/24 06:02:26;;;;;;;18.50;16.00;;;;;;;18.39;71.59;98829.63;223701;182;145283;-69
2023/05/24 06:07:29;;;;;;;17.60;14.60;;;;;;;18.40;71.39;98835.46;223721;182;140231;-68
2023/05/24 06:12:33;;;;;;;19.50;16.00;;;;;;;18.44;71.47;98838.11;223642;182;137941;-65
2023/05/24 06:17:36;;;;;;;51.90;43.50;;;;;;;18.52;71.43;98840.02;223708;182;145066;-69
2023/05/24 06:22:41;;;;;;;19.70;17.10;;;;;;;18.63;71.33;98838.21;223654;182;140296;-70
2023/05/24 06:27:44;;;;;;;21.20;15.60;;;;;;;18.71;71.16;98851.91;223731;182;137332;-69
2023/05/24 06:32:47;;;;;;;21.60;14.80;;;;;;;18.74;71.31;98858.45;223729;182;145374;-65
2023/05/24 06:37:51;;;;;;;18.00;15.20;;;;;;;18.82;71.33;98864.44;223644;181;138432;-70
2023/05/24 06:42:54;;;;;;;19.60;15.20;;;;;;;18.98;70.40;98870.53;223739;182;137689;-66
2023/05/24 06:47:57;;;;;;;21.90;14.80;;;;;;;19.06;70.00;98873.40;223723;182;145011;-68
2023/05/24 06:53:01;;;;;;;18.80;14.80;;;;;;;19.08;69.25;98880.87;223718;181;138117;-67
2023/05/24 06:58:05;;;;;;;20.20;15.00;;;;;;;19.12;68.96;98886.77;223635;182;136586;-66
2023/05/24 07:03:09;;;;;;;19.30;14.60;;;;;;;19.10;68.74;98888.93;223663;181;145913;-66
2023/05/24 07:08:12;;;;;;;17.30;13.80;;;;;;;19.00;68.46;98894.48;223566;181;139021;-68
2023/05/24 07:13:15;;;;;;;27.00;22.10;;;;;;;18.98;68.53;98898.78;223734;182;137996;-68
2023/05/24 07:18:18;;;;;;;20.30;14.30;;;;;;;19.00;68.42;98904.85;223578;182;145086;-68
2023/05/24 07:23:21;;;;;;;22.90;20.30;;;;;;;19.04;68.34;98904.33;223670;181;138623;-69
2023/05/24 07:28:25;;;;;;;16.30;14.20;;;;;;;19.03;68.28;98911.95;223691;181;137362;-69
2023/05/24 07:33:29;;;;;;;16.10;14.10;;;;;;;18.97;68.05;98917.77;223644;181;145495;-68
2023/05/24 07:38:33;;;;;;;17.00;13.90;;;;;;;18.92;68.25;98926.17;223682;182;138485;-69
2023/05/24 07:43:36;;;;;;;14.80;13.00;;;;;;;18.85;68.33;98927.60;223707;181;137498;-68
2023/05/24 07:48:40;;;;;;;15.40;13.50;;;;;;;18.81;68.74;98929.45;223633;181;145291;-69
2023/05/24 07:53:43;;;;;;;54.60;46.80;;;;;;;18.86;68.81;98936.16;223747;182;139632;-68
2023/05/24 07:58:48;;;;;;;19.30;15.20;;;;;;;18.93;68.64;98943.17;223696;182;137918;-67
2023/05/24 08:06:26;;;;;;;18.20;14.20;;;;;;;18.90;68.63;98949.74;221694;193;665991;-64
2023/05/24 08:11:30;;;;;;;17.60;14.80;;;;;;;18.83;68.67;98954.02;223802;182;136824;-64
2023/05/24 08:16:33;;;;;;;17.30;14.40;;;;;;;18.83;68.96;98959.62;223708;183;143485;-65
2023/05/24 08:21:36;;;;;;;22.80;16.60;;;;;;;18.75;68.65;98967.73;223717;183;138382;-67
2023/05/24 08:26:40;;;;;;;21.20;17.10;;;;;;;18.55;69.01;98973.63;223788;182;137593;-64
2023/05/24 08:31:43;;;;;;;24.30;18.60;;;;;;;18.37;69.62;98980.04;223742;183;143648;-65
2023/05/24 08:36:48;;;;;;;20.60;15.90;;;;;;;18.21;70.18;98990.89;223685;183;138685;-65
2023/05/24 08:41:54;;;;;;;34.90;26.10;;;;;;;18.07;70.92;98995.59;223668;183;137319;-67
2023/05/24 08:47:15;;;;;;;21.00;15.40;;;;;;;18.00;71.09;99004.46;223649;183;145123;-64
2023/05/24 08:52:19;;;;;;;17.60;14.70;;;;;;;17.88;71.26;99005.13;223481;183;138395;-64
2023/05/24 08:57:25;;;;;;;94.00;74.90;;;;;;;17.70;71.70;99013.67;223525;183;138252;-64
2023/05/24 09:02:29;;;;;;;15.80;11.00;;;;;;;17.63;72.16;99020.48;223542;183;145520;-64
2023/05/24 09:07:32;;;;;;;13.20;9.70;;;;;;;17.62;72.46;99027.41;223572;183;138921;-64
2023/05/24 09:12:37;;;;;;;14.30;11.50;;;;;;;17.63;72.72;99036.09;223509;183;137573;-64
2023/05/24 09:17:41;;;;;;;;;;;;;;;17.64;72.90;99035.95;223613;183;145386;-64
2023/05/24 09:22:49;;;;;;;9.00;6.90;;;;;;;17.66;72.88;99040.09;223657;183;138684;-63
2023/05/24 09:33:31;;;;;;;9.10;6.30;;;;;;;17.67;72.83;99056.30;221241;198;676669;-65
2023/05/24 09:38:34;;;;;;;7.20;4.90;;;;;;;17.73;72.80;99065.45;223545;183;139939;-64
2023/05/24 09:43:48;;;;;;;11.00;5.30;;;;;;;17.78;72.22;99072.10;223509;183;144278;-65
2023/05/24 09:48:58;;;;;;;6.70;5.30;;;;;;;17.70;71.81;99073.64;223646;183;138544;-64
2023/05/24 09:54:02;;;;;;;7.40;5.80;;;;;;;17.62;71.88;99083.34;223716;184;136114;-65
2023/05/24 09:59:07;;;;;;;8.60;6.20;;;;;;;17.56;71.70;99084.60;223392;183;144300;-65
2023/05/24 10:04:11;;;;;;;10.10;5.10;;;;;;;17.49;71.90;99086.66;223516;183;138313;-65
2023/05/24 10:09:14;;;;;;;8.30;6.80;;;;;;;17.48;72.56;99091.40;223642;183;136837;-65
2023/05/24 10:14:18;;;;;;;35.70;31.00;;;;;;;17.48;72.48;99100.05;223616;184;143631;-65
2023/05/24 10:19:22;;;;;;;17.50;10.60;;;;;;;17.46;72.42;99109.90;223557;183;138853;-64
2023/05/24 10:24:31;;;;;;;15.70;12.70;;;;;;;17.48;72.33;99114.16;223604;184;137983;-65
2023/05/24 10:33:31;;;;;;;17.00;13.40;;;;;;;17.48;72.32;99118.38;220348;193;677758;-65
2023/05/24 10:38:40;;;;;;;18.40;14.40;;;;;;;17.42;71.99;99122.14;223760;182;136496;-65
2023/05/24 10:43:47;;;;;;;16.50;13.90;;;;;;;17.46;71.76;99123.88;223745;182;144148;-66
2023/05/24 10:49:13;;;;;;;20.60;16.20;;;;;;;17.44;71.58;99122.30;223671;182;138408;-65
2023/05/24 10:54:18;;;;;;;55.90;47.90;;;;;;;17.37;71.57;99130.77;223745;182;136867;-64
2023/05/24 10:59:36;;;;;;;23.40;16.70;;;;;;;17.29;71.90;99134.79;223537;182;143476;-65
2023/05/24 11:04:45;;;;;;;23.00;17.10;;;;;;;17.25;71.83;99137.07;223660;182;141061;-66
2023/05/24 11:09:56;;;;;;;20.60;16.50;;;;;;;17.20;71.41;99146.45;223666;182;137057;-65
2023/05/24 11:15:01;;;;;;;22.30;17.60;;;;;;;17.11;71.13;99150.45;223590;184;144299;-65
2023/05/24 11:20:07;;;;;;;23.40;16.60;;;;;;;17.03;71.35;99158.52;223574;183;138384;-65
2023/05/24 11:25:11;;;;;;;20.30;15.60;;;;;;;16.95;71.40;99159.02;223690;182;137273;-65
2023/05/24 11:30:14;;;;;;;25.60;16.80;;;;;;;16.95;71.62;99159.90;223692;182;145575;-65
2023/05/24 11:35:18;;;;;;;23.50;16.80;;;;;;;17.00;71.76;99159.28;223597;182;138449;-65
2023/05/24 11:40:23;;;;;;;26.00;16.70;;;;;;;17.07;71.47;99165.88;223636;184;137340;-64
2023/05/24 11:45:28;;;;;;;23.50;17.50;;;;;;;17.05;71.13;99166.64;223562;184;146567;-65
2023/05/24 11:50:31;;;;;;;335.10;263.60;;;;;;;17.06;71.33;99172.05;223537;183;138977;-64
2023/05/24 11:55:53;;;;;;;28.80;16.60;;;;;;;17.06;70.87;99174.25;223509;184;137678;-65
2023/05/24 12:00:56;;;;;;;;;;;;;;;17.05;70.37;99176.50;223521;184;145481;-65
2023/05/24 12:05:59;;;;;;;26.20;16.30;;;;;;;17.06;70.30;99179.21;223630;184;138435;-64
2023/05/24 12:11:04;;;;;;;26.00;17.40;;;;;;;17.08;69.90;99178.88;223281;183;137531;-64
2023/05/24 12:16:11;;;;;;;24.30;17.80;;;;;;;17.07;69.38;99173.30;223576;183;145393;-66
2023/05/24 12:21:14;;;;;;;27.80;17.60;;;;;;;17.11;69.47;99177.96;223509;183;139924;-65
2023/05/24 12:26:21;;;;;;;22.50;15.70;;;;;;;17.10;69.33;99178.92;223569;184;136765;-66
2023/05/24 12:33:29;;;;;;;28.40;17.00;;;;;;;17.15;69.10;99175.75;220856;193;668584;-65
2023/05/24 12:38:32;;;;;;;23.10;17.50;;;;;;;17.24;68.82;99174.92;223475;183;137084;-65
2023/05/24 12:43:35;;;;;;;29.30;18.30;;;;;;;17.29;68.54;99165.80;223526;183;143595;-64
2023/05/24 12:48:39;;;;;;;26.80;18.50;;;;;;;17.36;68.48;99166.59;223627;183;139052;-64
2023/05/24 12:53:42;;;;;;;25.30;16.90;;;;;;;17.35;68.07;99163.23;223580;183;136716;-65
2023/05/24 12:58:46;;;;;;;22.90;15.90;;;;;;;17.32;67.78;99173.25;223726;183;143930;-64
2023/05/24 13:03:49;;;;;;;23.10;15.50;;;;;;;17.30;67.49;99174.14;223640;182;138423;-64
2023/05/24 13:08:52;;;;;;;23.80;16.10;;;;;;;17.27;67.49;99178.11;223711;182;137859;-63
2023/05/24 13:13:58;;;;;;;19.90;15.40;;;;;;;17.26;67.15;99180.19;223531;182;143574;-64
2023/05/24 13:19:01;;;;;;;20.00;15.60;;;;;;;17.12;67.00;99177.46;223629;182;140330;-63
2023/05/24 13:24:06;;;;;;;21.50;16.90;;;;;;;17.10;67.22;99168.70;223757;182;139630;-65
2023/05/24 13:29:10;;;;;;;19.40;14.70;;;;;;;17.10;67.60;99169.91;223682;182;145780;-64
2023/05/24 13:34:17;;;;;;;22.80;16.00;;;;;;;17.17;67.31;99170.19;223662;183;139187;-65
2023/05/24 13:39:21;;;;;;;18.30;14.70;;;;;;;17.28;67.43;99166.90;223706;183;139582;-64
2023/05/24 13:44:24;;;;;;;17.30;14.10;;;;;;;17.36;66.63;99176.50;223498;183;147872;-63
2023/05/24 13:49:28;;;;;;;25.80;16.20;;;;;;;17.35;66.37;99174.80;223651;183;139015;-63
2023/05/24 13:54:32;;;;;;;50.80;37.50;;;;;;;17.35;66.18;99174.40;223738;182;136688;-64
2023/05/24 13:59:35;;;;;;;23.90;15.30;;;;;;;17.34;65.91;99172.16;223654;182;145817;-65
2023/05/24 14:04:38;;;;;;;22.60;14.50;;;;;;;17.30;65.66;99174.49;223560;181;138485;-64
2023/05/24 14:09:41;;;;;;;20.80;13.00;;;;;;;17.23;65.65;99177.03;223736;182;136726;-64
2023/05/24 14:14:45;;;;;;;18.90;13.30;;;;;;;17.27;65.87;99180.29;223430;181;145228;-64
2023/05/24 14:19:58;;;;;;;22.00;13.50;;;;;;;17.35;65.86;99181.42;223499;181;138490;-63
2023/05/24 14:25:02;;;;;;;20.90;12.70;;;;;;;17.38;65.40;99175.95;223629;182;136516;-63
2023/05/24 14:30:07;;;;;;;17.00;13.10;;;;;;;17.38;65.28;99180.75;223623;182;145769;-64
2023/05/24 14:35:10;;;;;;;18.50;13.30;;;;;;;17.38;65.26;99170.55;223190;181;138400;-63
2023/05/24 14:40:13;;;;;;;17.70;13.00;;;;;;;17.35;65.24;99172.98;223142;182;137465;-63
2023/05/24 14:45:20;;;;;;;17.90;13.30;;;;;;;17.34;65.37;99174.28;223573;181;145295;-63
2023/05/24 14:50:23;;;;;;;15.70;10.60;;;;;;;17.36;65.13;99176.82;223439;182;139177;-64
2023/05/24 14:55:26;;;;;;;17.30;11.90;;;;;;;17.39;65.17;99173.68;223534;181;138043;-63
2023/05/24 15:00:29;;;;;;;22.40;13.70;;;;;;;17.43;64.91;99174.55;223451;181;145294;-65
2023/05/24 15:05:33;;;;;;;24.20;14.60;;;;;;;17.45;64.57;99184.25;223506;181;138411;-63
2023/05/24 15:10:39;;;;;;;20.80;15.10;;;;;;;17.47;64.46;99183.15;223474;182;137130;-64
2023/05/24 15:15:43;;;;;;;21.20;12.60;;;;;;;17.45;64.60;99194.13;223602;181;145446;-64
2023/05/24 15:20:47;;;;;;;17.30;12.20;;;;;;;17.40;64.65;99190.06;223656;181;138406;-63
2023/05/24 15:25:51;;;;;;;16.10;12.10;;;;;;;17.39;64.69;99187.67;223625;181;137612;-62
2023/05/24 15:36:31;;;;;;;19.00;12.00;;;;;;;17.41;64.64;99189.43;220613;215;666082;-63
2023/05/24 15:41:36;;;;;;;18.20;12.60;;;;;;;17.36;64.63;99192.59;223876;184;138012;-65
2023/05/24 15:46:39;;;;;;;17.50;13.20;;;;;;;17.44;64.43;99195.44;223843;180;143803;-63
2023/05/24 15:51:46;;;;;;;17.40;13.00;;;;;;;17.51;64.27;99199.84;223778;181;138194;-63
2023/05/24 15:57:02;;;;;;;18.10;12.70;;;;;;;17.54;63.93;99199.27;223723;181;136746;-63
2023/05/24 16:02:06;;;;;;;19.00;12.30;;;;;;;17.49;64.05;99201.86;223726;192;143603;-63
2023/05/24 16:07:10;;;;;;;21.30;13.40;;;;;;;17.46;64.10;99208.41;223726;214;138433;-63
2023/05/24 16:12:13;;;;;;;19.40;12.60;;;;;;;17.44;64.11;99216.11;223871;211;138959;-63
2023/05/24 16:17:16;;;;;;;17.60;13.00;;;;;;;17.43;64.15;99215.45;223806;214;144332;-63
2023/05/24 16:22:20;;;;;;;20.30;13.80;;;;;;;17.42;63.93;99217.86;223836;181;138928;-62
2023/05/24 16:27:23;;;;;;;20.00;13.90;;;;;;;17.39;63.91;99228.01;223747;192;136382;-62
2023/05/24 16:38:06;;;;;;;20.40;14.30;;;;;;;17.42;63.88;99236.85;221120;193;665618;-63
2023/05/24 16:43:09;;;;;;;21.40;15.90;;;;;;;17.40;63.78;99242.23;223535;216;136535;-63
2023/05/24 16:48:13;;;;;;;21.10;15.10;;;;;;;17.40;63.79;99246.22;223471;182;143345;-64
2023/05/24 16:53:16;;;;;;;18.30;14.20;;;;;;;17.38;63.88;99255.58;223471;182;139804;-64
2023/05/24 16:58:21;;;;;;;20.30;14.60;;;;;;;17.36;64.06;99256.50;223389;182;136886;-64
2023/05/24 17:03:28;;;;;;;18.70;13.60;;;;;;;17.35;64.01;99263.03;223663;180;143424;-64
2023/05/24 17:08:34;;;;;;;18.30;12.90;;;;;;;17.35;63.76;99265.34;223709;180;140728;-63
2023/05/24 17:13:37;;;;;;;22.20;14.50;;;;;;;17.32;63.83;99269.36;223788;180;136764;-63
2023/05/24 17:18:40;;;;;;;18.20;13.90;;;;;;;17.30;64.02;99268.95;223792;182;143444;-64
2023/05/24 17:23:44;;;;;;;19.50;12.80;;;;;;;17.23;64.25;99275.83;223729;185;140018;-63
2023/05/24 17:28:47;;;;;;;18.70;13.40;;;;;;;17.23;64.55;99275.99;223721;180;138628;-64
2023/05/24 17:33:50;;;;;;;19.90;13.50;;;;;;;17.25;64.95;99275.33;223720;181;145685;-64
2023/05/24 17:38:53;;;;;;;15.80;11.70;;;;;;;17.27;65.32;99281.59;223821;203;138337;-64
2023/05/24 17:43:57;;;;;;;12.60;9.90;;;;;;;17.27;64.71;99284.29;223856;181;137009;-64
2023/05/24 17:49:01;;;;;;;12.60;10.80;;;;;;;17.23;64.68;99286.90;223744;214;146871;-61
2023/05/24 17:54:05;;;;;;;14.80;10.30;;;;;;;17.22;64.44;99290.67;223690;181;138672;-63
2023/05/24 17:59:08;;;;;;;12.30;8.70;;;;;;;17.20;64.33;99295.45;223539;181;136658;-65
2023/05/24 18:04:12;;;;;;;28.40;23.30;;;;;;;17.15;64.48;99300.88;223487;181;144965;-64
2023/05/24 18:09:15;;;;;;;24.60;19.80;;;;;;;17.17;64.53;99305.36;223574;182;138394;-64
2023/05/24 18:33:35;;;;;;;19.00;9.20;;;;;;;17.17;64.57;99339.85;219562;192;665627;-64
2023/05/24 18:38:38;;;;;;;16.70;14.00;;;;;;;17.14;64.49;99348.31;223441;183;136543;-64
2023/05/24 18:43:42;;;;;;;38.80;27.10;;;;;;;17.09;64.69;99357.70;223518;216;143468;-63
2023/05/24 18:48:46;;;;;;;14.30;10.30;;;;;;;17.04;64.96;99364.94;223486;183;138825;-64
2023/05/24 18:53:50;;;;;;;16.10;9.90;;;;;;;16.99;65.10;99367.84;223474;183;137544;-65
2023/05/24 18:58:57;;;;;;;13.70;9.10;;;;;;;16.94;65.10;99376.54;223444;183;145041;-63
2023/05/24 19:04:02;;;;;;;13.30;8.70;;;;;;;16.89;65.36;99385.58;223493;182;138793;-63
2023/05/24 19:09:06;;;;;;;13.80;7.80;;;;;;;16.87;65.19;99396.86;223672;182;136690;-63
2023/05/24 19:14:12;;;;;;;10.10;7.50;;;;;;;16.86;65.26;99403.39;223660;183;143188;-63
2023/05/24 19:19:15;;;;;;;99.50;70.30;;;;;;;16.88;65.48;99407.15;223646;183;138633;-64
2023/05/24 19:24:20;;;;;;;83.20;74.20;;;;;;;16.93;65.46;99409.80;223690;183;137019;-63
2023/05/24 19:35:00;;;;;;;14.10;8.60;;;;;;;16.90;64.88;99409.34;220965;193;676754;-62
2023/05/24 19:40:05;;;;;;;13.30;8.10;;;;;;;16.77;64.23;99396.40;223648;183;136393;-64
2023/05/24 19:45:09;;;;;;;10.10;7.40;;;;;;;16.70;63.96;99394.04;223737;182;143514;-63
2023/05/24 19:50:12;;;;;;;14.00;7.90;;;;;;;16.67;63.84;99395.96;223724;183;139088;-63
2023/05/24 19:55:15;;;;;;;10.80;8.20;;;;;;;16.63;64.02;99397.35;223669;182;136567;-64
2023/05/24 20:00:18;;;;;;;11.90;7.90;;;;;;;16.60;63.97;99404.98;223534;183;144489;-63
2023/05/24 20:05:22;;;;;;;12.40;8.00;;;;;;;16.52;64.00;99398.22;223585;182;138261;-64
2023/05/24 20:10:27;;;;;;;10.70;7.50;;;;;;;16.43;64.28;99388.05;223717;182;137488;-63
2023/05/24 20:15:30;;;;;;;12.70;6.90;;;;;;;16.39;64.68;99379.74;223634;182;145403;-64
2023/05/24 20:20:34;;;;;;;11.00;7.80;;;;;;;16.45;64.77;99379.42;223672;182;138449;-64
2023/05/24 20:25:37;;;;;;;16.00;8.10;;;;;;;16.49;64.39;99384.50;223781;182;137083;-64
2023/05/24 20:30:44;;;;;;;52.30;40.50;;;;;;;16.48;64.27;99384.02;223657;182;145900;-64
2023/05/24 20:35:48;;;;;;;11.10;8.40;;;;;;;16.50;64.36;99377.75;223561;184;138576;-64
2023/05/24 20:40:51;;;;;;;14.90;8.00;;;;;;;16.49;64.11;99389.66;223581;184;136707;-64
2023/05/24 22:45:31;;;;;;;16.20;11.30;;;;;;;15.94;64.39;99456.53;220483;194;666088;-63
2023/05/24 22:50:47;;;;;;;14.80;11.10;;;;;;;15.89;64.38;99465.90;223703;182;136367;-63
2023/05/24 22:55:50;;;;;;;17.50;11.60;;;;;;;15.85;64.49;99470.31;223742;183;144942;-64
2023/05/24 23:00:54;;;;;;;15.30;11.60;;;;;;;15.80;64.84;99469.61;223655;183;140529;-64
2023/05/24 23:06:02;;;;;;;18.50;11.30;;;;;;;15.76;64.82;99473.12;223727;182;137538;-63
2023/05/24 23:11:09;;;;;;;16.70;12.00;;;;;;;15.77;64.90;99474.29;223613;182;144030;-63
2023/05/24 23:34:26;;;;;;;17.70;12.20;;;;;;;15.81;65.18;99479.16;221366;192;666325;-64
2023/05/24 23:39:29;;;;;;;18.80;12.30;;;;;;;15.79;65.19;99477.04;223750;182;136618;-64
2023/05/24 23:44:32;;;;;;;16.60;11.80;;;;;;;15.78;65.15;99478.85;223785;182;143433;-64
2023/05/24 23:49:36;;;;;;;19.50;11.40;;;;;;;15.77;65.26;99478.25;223619;182;139944;-64
2023/05/24 23:54:39;;;;;;;17.30;10.40;;;;;;;15.77;65.49;99483.07;223725;182;137233;-64
2023/05/24 23:59:42;;;;;;;13.80;9.40;;;;;;;15.75;65.68;99470.55;223772;182;144402;-64
